Time;durP1;ratioP1;P1;durP2;ratioP2;P2;SDS_P1;SDS_P2;PMS_P1;PMS_P2;Temp;Humidity;BMP_temperature;BMP_pressure;BME280_temperature;BME280_humidity;BME280_pressure;Samples;Min_cycle;Max_cycle;Signal;HPM_P1;HPM_P2
2021/06/04 00:01:18;;;;;;;8.70;8.00;;;;;;;;;;5155203;27;20836;-59
2021/06/04 00:03:45;;;;;;;10.07;7.83;;;;;;;;;;5155062;27;20507;-59
2021/06/04 00:06:13;;;;;;;8.50;7.80;;;;;;;;;;5155558;27;20484;-59
2021/06/04 00:08:40;;;;;;;9.23;8.43;;;;;;;;;;5154790;27;20479;-59
2021/06/04 00:11:08;;;;;;;9.97;7.90;;;;;;;;;;5154589;27;20455;-59
2021/06/04 00:13:36;;;;;;;9.87;8.90;;;;;;;;;;5155143;27;20863;-59
2021/06/04 00:16:05;;;;;;;8.63;7.83;;;;;;;;;;5154647;27;20958;-59
2021/06/04 00:18:34;;;;;;;8.30;7.70;;;;;;;;;;5154853;27;20431;-59
2021/06/04 00:21:01;;;;;;;9.53;8.63;;;;;;;;;;5154498;27;20625;-60
2021/06/04 00:23:28;;;;;;;8.03;7.33;;;;;;;;;;5155965;27;20455;-59
2021/06/04 00:25:55;;;;;;;9.00;8.20;;;;;;;;;;5158835;27;20815;-59
2021/06/04 00:28:21;;;;;;;8.63;7.70;;;;;;;;;;5158959;27;20524;-59
2021/06/04 00:30:48;;;;;;;9.73;8.83;;;;;;;;;;5159143;27;20435;-58
2021/06/04 00:33:15;;;;;;;9.27;8.50;;;;;;;;;;5158557;27;20467;-58
2021/06/04 00:35:43;;;;;;;8.13;7.43;;;;;;;;;;5158571;27;20929;-60
2021/06/04 00:38:10;;;;;;;9.63;8.83;;;;;;;;;;5158899;27;20439;-59
2021/06/04 00:40:38;;;;;;;9.17;8.47;;;;;;;;;;5158421;27;20435;-59
2021/06/04 00:43:06;;;;;;;11.13;10.03;;;;;;;;;;5158323;27;21043;-58
2021/06/04 00:45:34;;;;;;;9.83;9.03;;;;;;;;;;5158773;27;20436;-59
2021/06/04 00:48:01;;;;;;;9.70;8.70;;;;;;;;;;5158651;27;20492;-59
2021/06/04 00:50:30;;;;;;;9.83;8.93;;;;;;;;;;5158613;27;20474;-58
2021/06/04 00:52:58;;;;;;;9.97;9.10;;;;;;;;;;5158518;27;20463;-58
2021/06/04 00:55:25;;;;;;;10.40;9.40;;;;;;;;;;5158256;27;20923;-58
2021/06/04 00:57:53;;;;;;;10.53;9.63;;;;;;;;;;5158298;27;20435;-59
2021/06/04 01:00:24;;;;;;;10.57;9.77;;;;;;;;;;5158539;27;20435;-59
2021/06/04 01:02:52;;;;;;;10.50;9.60;;;;;;;;;;5158361;27;20459;-59
2021/06/04 01:05:19;;;;;;;10.40;9.50;;;;;;;;;;5158370;27;20439;-59
2021/06/04 01:07:54;;;;;;;10.50;9.70;;;;;;;;;;5157974;27;20450;-59
2021/06/04 01:10:27;;;;;;;10.87;9.97;;;;;;;;;;5158297;27;20465;-59
2021/06/04 01:12:56;;;;;;;10.53;9.63;;;;;;;;;;5158292;27;20470;-59
2021/06/04 01:15:29;;;;;;;11.10;10.27;;;;;;;;;;5158415;27;20448;-59
2021/06/04 01:17:58;;;;;;;10.20;9.33;;;;;;;;;;5158165;27;20947;-59
2021/06/04 01:20:27;;;;;;;10.17;9.37;;;;;;;;;;5158110;27;20507;-59
2021/06/04 01:23:05;;;;;;;10.37;9.30;;;;;;;;;;5157691;27;20466;-59
2021/06/04 01:25:38;;;;;;;10.20;9.30;;;;;;;;;;5158019;27;20765;-59
2021/06/04 01:28:09;;;;;;;9.13;8.33;;;;;;;;;;5157933;27;20431;-60
2021/06/04 01:30:38;;;;;;;10.87;9.97;;;;;;;;;;5157978;27;20416;-60
2021/06/04 01:33:08;;;;;;;9.83;8.87;;;;;;;;;;5157681;27;20487;-58
2021/06/04 01:35:38;;;;;;;9.23;8.43;;;;;;;;;;5157019;27;20441;-58
2021/06/04 01:38:05;;;;;;;9.10;8.30;;;;;;;;;;5157468;27;20431;-58
2021/06/04 01:40:33;;;;;;;9.73;8.83;;;;;;;;;;5157708;27;20443;-58
2021/06/04 01:43:04;;;;;;;8.77;7.97;;;;;;;;;;5157667;27;20456;-57
2021/06/04 01:45:32;;;;;;;9.90;9.10;;;;;;;;;;5157693;27;20551;-58
2021/06/04 01:48:02;;;;;;;10.27;9.33;;;;;;;;;;5157523;27;20500;-58
2021/06/04 01:50:32;;;;;;;9.43;8.63;;;;;;;;;;5157454;27;20456;-60
2021/06/04 01:53:01;;;;;;;9.53;8.83;;;;;;;;;;5157859;27;20468;-59
2021/06/04 01:55:29;;;;;;;10.70;9.80;;;;;;;;;;5157492;27;20440;-59
2021/06/04 01:57:58;;;;;;;10.97;10.03;;;;;;;;;;5157680;27;20450;-59
2021/06/04 02:00:27;;;;;;;10.40;9.50;;;;;;;;;;5157288;27;20458;-59
2021/06/04 02:02:55;;;;;;;9.10;8.20;;;;;;;;;;5157159;27;20459;-59
2021/06/04 02:05:23;;;;;;;11.07;10.13;;;;;;;;;;5157166;27;20474;-59
2021/06/04 02:07:50;;;;;;;11.50;10.40;;;;;;;;;;5157173;27;20853;-58
2021/06/04 02:10:20;;;;;;;11.27;10.27;;;;;;;;;;5157068;27;20568;-58
2021/06/04 02:12:48;;;;;;;11.07;10.07;;;;;;;;;;5156979;27;21087;-59
2021/06/04 02:15:17;;;;;;;11.07;10.17;;;;;;;;;;5156776;27;20980;-59
2021/06/04 02:17:52;;;;;;;11.20;10.30;;;;;;;;;;5157008;27;20440;-59
2021/06/04 02:20:22;;;;;;;11.60;10.50;;;;;;;;;;5156974;27;20420;-58
2021/06/04 02:22:53;;;;;;;10.00;9.20;;;;;;;;;;5156878;27;20473;-59
2021/06/04 02:25:22;;;;;;;11.47;10.40;;;;;;;;;;5156886;27;20428;-59
2021/06/04 02:27:50;;;;;;;11.77;10.60;;;;;;;;;;5156560;27;20935;-58
2021/06/04 02:30:19;;;;;;;11.30;10.40;;;;;;;;;;5156659;27;20471;-57
2021/06/04 02:32:49;;;;;;;11.03;10.13;;;;;;;;;;5176126;22;21002;-64
2021/06/04 02:35:18;;;;;;;12.23;11.03;;;;;;;;;;5156723;27;20427;-63
2021/06/04 02:37:47;;;;;;;15.53;11.43;;;;;;;;;;5156629;27;20439;-63
2021/06/04 02:40:16;;;;;;;11.93;10.93;;;;;;;;;;5156926;27;20508;-63
2021/06/04 02:42:44;;;;;;;11.67;10.57;;;;;;;;;;5157583;27;20460;-63
2021/06/04 02:45:16;;;;;;;12.33;11.17;;;;;;;;;;5157951;27;20435;-63
2021/06/04 02:47:45;;;;;;;12.07;10.80;;;;;;;;;;5155113;27;20898;-62
2021/06/04 02:50:17;;;;;;;12.27;11.07;;;;;;;;;;5156509;27;20482;-62
2021/06/04 02:52:45;;;;;;;12.53;11.50;;;;;;;;;;5156104;27;21119;-63
2021/06/04 02:55:13;;;;;;;12.77;11.60;;;;;;;;;;5156319;27;20442;-63
2021/06/04 02:57:40;;;;;;;12.87;11.70;;;;;;;;;;5155814;27;20451;-63
2021/06/04 03:00:09;;;;;;;13.07;11.87;;;;;;;;;;5156150;27;20436;-63
2021/06/04 03:02:36;;;;;;;12.77;11.67;;;;;;;;;;5156727;27;20459;-63
2021/06/04 03:05:06;;;;;;;12.87;11.53;;;;;;;;;;5156038;27;20492;-63
2021/06/04 03:07:36;;;;;;;11.63;10.63;;;;;;;;;;5156092;27;20423;-63
2021/06/04 03:10:05;;;;;;;13.30;12.10;;;;;;;;;;5155947;27;20558;-63
2021/06/04 03:12:34;;;;;;;13.77;12.57;;;;;;;;;;5155985;27;20486;-63
2021/06/04 03:15:01;;;;;;;11.63;10.63;;;;;;;;;;5155924;27;20440;-63
2021/06/04 03:17:29;;;;;;;14.10;12.90;;;;;;;;;;5160256;27;20435;-63
2021/06/04 03:19:56;;;;;;;12.57;11.43;;;;;;;;;;5162454;27;20447;-64
2021/06/04 03:22:25;;;;;;;12.93;11.80;;;;;;;;;;5163284;27;20459;-64
2021/06/04 03:24:53;;;;;;;13.60;12.20;;;;;;;;;;5163299;27;20446;-62
2021/06/04 03:27:21;;;;;;;13.10;11.80;;;;;;;;;;5163506;27;20468;-61
2021/06/04 03:29:48;;;;;;;13.40;12.20;;;;;;;;;;5163556;27;20475;-63
2021/06/04 03:32:16;;;;;;;13.67;12.50;;;;;;;;;;5163402;27;20450;-64
2021/06/04 03:34:43;;;;;;;12.90;11.60;;;;;;;;;;5163873;27;20423;-63
2021/06/04 03:37:11;;;;;;;14.77;13.57;;;;;;;;;;5164946;27;20518;-63
2021/06/04 03:39:39;;;;;;;13.93;12.67;;;;;;;;;;5162727;27;20443;-64
2021/06/04 03:42:11;;;;;;;14.40;12.93;;;;;;;;;;5162070;27;20488;-63
2021/06/04 03:44:39;;;;;;;12.93;11.90;;;;;;;;;;5164363;27;20424;-64
2021/06/04 03:47:06;;;;;;;13.77;12.50;;;;;;;;;;5162566;27;20443;-63
2021/06/04 03:49:33;;;;;;;13.03;11.93;;;;;;;;;;5163026;27;20478;-63
2021/06/04 03:52:00;;;;;;;12.80;11.70;;;;;;;;;;5163737;27;20465;-63
2021/06/04 03:54:29;;;;;;;13.77;12.57;;;;;;;;;;5165906;27;20444;-63
2021/06/04 03:56:55;;;;;;;15.13;13.63;;;;;;;;;;5161781;27;20439;-63
2021/06/04 03:59:24;;;;;;;13.57;12.37;;;;;;;;;;5158358;27;20446;-62
2021/06/04 04:01:52;;;;;;;14.27;13.03;;;;;;;;;;5184891;22;20949;-60
2021/06/04 04:04:19;;;;;;;15.00;13.30;;;;;;;;;;5167105;22;20479;-61
2021/06/04 04:08:10;;;;;;;14.03;12.83;;;;;;;;;;5153092;27;20552;-60
2021/06/04 04:10:36;;;;;;;14.00;12.80;;;;;;;;;;5151918;27;20558;-61
2021/06/04 04:13:04;;;;;;;14.97;13.67;;;;;;;;;;5152060;27;20861;-62
2021/06/04 04:15:30;;;;;;;13.50;12.20;;;;;;;;;;5151710;27;20945;-61
2021/06/04 04:17:59;;;;;;;13.50;12.40;;;;;;;;;;5151676;27;20432;-61
2021/06/04 04:20:27;;;;;;;15.40;14.00;;;;;;;;;;5167191;22;20550;-58
2021/06/04 04:22:54;;;;;;;13.93;12.63;;;;;;;;;;5110792;28;20438;-59
2021/06/04 04:25:23;;;;;;;13.90;12.50;;;;;;;;;;5110880;28;20437;-59
2021/06/04 04:27:50;;;;;;;14.00;12.60;;;;;;;;;;5111118;28;20500;-58
2021/06/04 04:30:18;;;;;;;13.97;12.67;;;;;;;;;;5111584;28;20460;-59
2021/06/04 04:32:45;;;;;;;13.87;12.70;;;;;;;;;;5110775;28;20456;-59
2021/06/04 04:35:26;;;;;;;11.93;10.93;;;;;;;;;;5112027;28;20449;-60
2021/06/04 04:37:52;;;;;;;13.37;12.03;;;;;;;;;;5110762;28;20426;-59
2021/06/04 04:40:20;;;;;;;12.40;11.40;;;;;;;;;;5110631;28;20866;-61
2021/06/04 04:42:48;;;;;;;11.17;10.27;;;;;;;;;;5110541;28;20850;-60
2021/06/04 04:45:19;;;;;;;10.93;9.83;;;;;;;;;;5110248;28;20446;-59
2021/06/04 04:47:45;;;;;;;10.93;10.03;;;;;;;;;;5110381;28;20472;-60
2021/06/04 04:50:13;;;;;;;9.83;8.93;;;;;;;;;;5110237;28;20466;-60
2021/06/04 04:52:40;;;;;;;9.63;8.77;;;;;;;;;;5110320;28;20450;-59
2021/06/04 04:55:08;;;;;;;8.50;7.70;;;;;;;;;;5110161;28;20448;-60
2021/06/04 04:57:35;;;;;;;9.90;9.10;;;;;;;;;;5110124;28;20527;-60
2021/06/04 05:00:05;;;;;;;10.23;9.30;;;;;;;;;;5109835;28;20999;-58
2021/06/04 05:02:31;;;;;;;9.10;8.30;;;;;;;;;;5110039;28;20932;-59
2021/06/04 05:04:58;;;;;;;10.07;8.23;;;;;;;;;;5109852;28;20941;-59
2021/06/04 05:07:25;;;;;;;10.50;7.90;;;;;;;;;;5110121;28;20485;-61
2021/06/04 05:09:52;;;;;;;8.80;7.97;;;;;;;;;;5109821;28;20468;-59
2021/06/04 05:12:19;;;;;;;8.43;7.67;;;;;;;;;;5109775;28;20818;-61
2021/06/04 05:14:45;;;;;;;8.50;7.70;;;;;;;;;;5110525;28;20448;-60
2021/06/04 05:17:14;;;;;;;8.13;7.40;;;;;;;;;;5109938;28;20458;-59
2021/06/04 05:19:43;;;;;;;8.40;7.70;;;;;;;;;;5095507;28;20480;-59
2021/06/04 05:22:10;;;;;;;8.07;7.30;;;;;;;;;;5096461;28;20455;-59
2021/06/04 05:24:38;;;;;;;8.57;7.80;;;;;;;;;;5096614;28;20443;-59
2021/06/04 05:27:05;;;;;;;8.50;7.67;;;;;;;;;;5095699;28;20991;-60
2021/06/04 05:29:32;;;;;;;7.97;7.17;;;;;;;;;;5095977;28;20814;-59
2021/06/04 05:31:59;;;;;;;9.17;8.30;;;;;;;;;;5096224;28;20498;-59
2021/06/04 05:34:27;;;;;;;10.37;7.77;;;;;;;;;;5095745;28;20448;-59
2021/06/04 05:36:54;;;;;;;9.70;8.90;;;;;;;;;;5095990;28;20437;-59
2021/06/04 05:39:23;;;;;;;9.07;8.17;;;;;;;;;;5095630;28;20460;-59
2021/06/04 05:41:53;;;;;;;8.80;8.00;;;;;;;;;;5096537;28;20506;-59
2021/06/04 05:44:21;;;;;;;8.80;8.10;;;;;;;;;;5095309;28;20487;-60
2021/06/04 05:46:49;;;;;;;10.50;9.60;;;;;;;;;;5095603;28;20477;-60
2021/06/04 05:49:16;;;;;;;9.33;8.43;;;;;;;;;;5096400;28;20460;-57
2021/06/04 05:51:44;;;;;;;8.33;7.60;;;;;;;;;;5095080;28;21005;-58
2021/06/04 05:54:11;;;;;;;9.70;8.90;;;;;;;;;;5095156;28;20454;-57
2021/06/04 05:56:38;;;;;;;10.27;9.37;;;;;;;;;;5095238;28;20440;-57
2021/06/04 05:59:05;;;;;;;10.30;9.50;;;;;;;;;;5095237;28;20472;-58
2021/06/04 06:01:33;;;;;;;9.00;8.30;;;;;;;;;;5094870;28;20967;-58
2021/06/04 06:04:00;;;;;;;8.30;7.70;;;;;;;;;;5095790;28;20439;-57
2021/06/04 06:06:27;;;;;;;9.07;8.27;;;;;;;;;;5094997;28;20485;-58
2021/06/04 06:08:55;;;;;;;9.37;8.40;;;;;;;;;;5095415;28;20452;-60
2021/06/04 06:11:25;;;;;;;8.63;7.80;;;;;;;;;;5095190;28;20839;-58
2021/06/04 06:13:52;;;;;;;10.27;7.73;;;;;;;;;;5095308;28;20453;-59
2021/06/04 06:16:19;;;;;;;9.20;7.00;;;;;;;;;;5094758;28;20439;-59
2021/06/04 06:18:55;;;;;;;8.87;7.93;;;;;;;;;;5095122;28;20447;-57
2021/06/04 06:21:23;;;;;;;8.20;7.03;;;;;;;;;;5094560;28;20487;-59
2021/06/04 06:23:49;;;;;;;8.30;7.57;;;;;;;;;;5095876;28;20443;-58
2021/06/04 06:26:23;;;;;;;7.10;6.50;;;;;;;;;;5095276;28;20492;-59
2021/06/04 06:28:50;;;;;;;10.37;7.00;;;;;;;;;;5094365;28;20441;-58
2021/06/04 06:31:20;;;;;;;7.20;6.57;;;;;;;;;;5093403;28;20480;-58
2021/06/04 06:33:47;;;;;;;11.03;7.00;;;;;;;;;;5094591;28;20467;-58
2021/06/04 06:36:16;;;;;;;10.27;6.70;;;;;;;;;;5094354;28;20442;-58
2021/06/04 06:38:43;;;;;;;7.37;6.67;;;;;;;;;;5094062;28;20448;-59
2021/06/04 06:41:11;;;;;;;9.47;7.60;;;;;;;;;;5094327;28;20522;-60
2021/06/04 06:43:41;;;;;;;8.37;6.57;;;;;;;;;;5094320;28;20441;-60
2021/06/04 06:46:09;;;;;;;7.47;6.77;;;;;;;;;;5094197;28;20474;-59
2021/06/04 06:48:37;;;;;;;8.10;7.30;;;;;;;;;;5094492;28;20821;-59
2021/06/04 06:51:04;;;;;;;8.07;7.40;;;;;;;;;;5094015;28;20467;-59
2021/06/04 06:53:30;;;;;;;8.33;7.60;;;;;;;;;;5093936;28;20477;-57
2021/06/04 06:55:58;;;;;;;8.57;7.77;;;;;;;;;;5095969;28;20443;-58
2021/06/04 06:58:25;;;;;;;8.53;7.83;;;;;;;;;;5093862;28;20447;-60
2021/06/04 07:00:54;;;;;;;9.20;8.10;;;;;;;;;;5094249;28;20465;-58
2021/06/04 07:03:23;;;;;;;9.70;7.47;;;;;;;;;;5093880;28;20447;-57
2021/06/04 07:05:50;;;;;;;10.27;7.50;;;;;;;;;;5094072;28;20454;-58
2021/06/04 07:08:17;;;;;;;9.17;8.27;;;;;;;;;;5095278;28;20487;-58
2021/06/04 07:10:44;;;;;;;8.23;7.43;;;;;;;;;;5093507;28;20463;-59
2021/06/04 07:13:12;;;;;;;8.87;8.00;;;;;;;;;;5093514;28;20442;-58
2021/06/04 07:15:39;;;;;;;11.97;7.43;;;;;;;;;;5093770;28;20433;-59
2021/06/04 07:18:08;;;;;;;9.10;7.60;;;;;;;;;;5093438;28;20964;-59
2021/06/04 07:20:35;;;;;;;11.67;7.60;;;;;;;;;;5093434;28;20489;-59
2021/06/04 07:23:03;;;;;;;10.13;7.13;;;;;;;;;;5093440;28;20438;-59
2021/06/04 07:25:32;;;;;;;6.13;5.50;;;;;;;;;;5093343;28;20454;-59
2021/06/04 07:27:59;;;;;;;7.20;6.50;;;;;;;;;;5093498;28;20535;-58
2021/06/04 07:30:27;;;;;;;6.60;6.00;;;;;;;;;;5121828;22;20496;-61
2021/06/04 07:32:56;;;;;;;7.07;6.57;;;;;;;;;;5113882;28;20444;-61
2021/06/04 07:35:25;;;;;;;8.97;8.07;;;;;;;;;;5113867;28;20484;-61
2021/06/04 07:37:52;;;;;;;8.03;7.13;;;;;;;;;;5113758;28;20438;-60
2021/06/04 07:40:20;;;;;;;7.40;6.70;;;;;;;;;;5129612;22;20931;-59
2021/06/04 07:42:50;;;;;;;7.77;6.47;;;;;;;;;;5135417;27;20911;-56
2021/06/04 07:45:17;;;;;;;7.57;6.77;;;;;;;;;;5133894;27;20451;-58
2021/06/04 07:47:44;;;;;;;7.50;6.80;;;;;;;;;;5133771;27;20492;-57
2021/06/04 07:50:12;;;;;;;7.03;6.13;;;;;;;;;;5133483;27;20877;-58
2021/06/04 07:52:40;;;;;;;9.30;6.80;;;;;;;;;;5133820;27;20465;-59
2021/06/04 07:57:34;;;;;;;5.77;5.17;;;;;;;;;;5130066;22;20489;-60
2021/06/04 08:00:01;;;;;;;6.00;5.10;;;;;;;;;;5113259;28;20561;-60
2021/06/04 08:02:28;;;;;;;6.50;5.90;;;;;;;;;;5113864;28;20446;-59
2021/06/04 08:04:54;;;;;;;6.10;5.57;;;;;;;;;;5113675;28;20456;-59
2021/06/04 08:07:21;;;;;;;6.20;5.60;;;;;;;;;;5113590;28;20492;-59
2021/06/04 08:09:49;;;;;;;8.73;6.00;;;;;;;;;;5113300;28;20457;-59
2021/06/04 08:12:30;;;;;;;6.53;5.83;;;;;;;;;;5113348;28;20447;-60
2021/06/04 08:17:27;;;;;;;6.40;5.87;;;;;;;;;;5071828;28;20897;-61
2021/06/04 08:19:54;;;;;;;6.23;5.63;;;;;;;;;;5073547;28;20464;-60
2021/06/04 08:22:21;;;;;;;6.43;5.93;;;;;;;;;;5072750;28;20485;-59
2021/06/04 08:24:50;;;;;;;6.10;5.50;;;;;;;;;;5074268;28;20455;-61
2021/06/04 08:27:19;;;;;;;5.77;5.27;;;;;;;;;;5053768;28;20486;-59
2021/06/04 08:29:48;;;;;;;7.07;6.37;;;;;;;;;;5085352;22;21000;-60
2021/06/04 08:32:15;;;;;;;7.17;5.10;;;;;;;;;;5092597;28;20600;-60
2021/06/04 08:34:42;;;;;;;6.30;5.70;;;;;;;;;;5092583;28;20930;-60
2021/06/04 08:37:09;;;;;;;6.30;5.90;;;;;;;;;;5092842;28;20459;-60
2021/06/04 08:39:39;;;;;;;7.57;6.87;;;;;;;;;;5092743;28;20458;-60
2021/06/04 08:42:21;;;;;;;7.10;5.90;;;;;;;;;;5092258;28;20912;-60
2021/06/04 08:44:53;;;;;;;6.97;6.47;;;;;;;;;;5092503;28;20497;-60
2021/06/04 08:47:20;;;;;;;7.83;6.73;;;;;;;;;;5091968;28;20459;-60
2021/06/04 08:52:19;;;;;;;7.47;6.80;;;;;;;;;;5146655;22;20533;-60
2021/06/04 08:54:48;;;;;;;7.57;4.87;;;;;;;;;;5116140;28;20930;-59
2021/06/04 08:57:26;;;;;;;4.67;4.30;;;;;;;;;;5116877;28;20431;-60
2021/06/04 08:59:54;;;;;;;6.40;5.77;;;;;;;;;;5116872;28;20453;-63
2021/06/04 09:02:22;;;;;;;6.23;5.73;;;;;;;;;;5117402;28;20493;-61
2021/06/04 09:07:21;;;;;;;7.33;6.17;;;;;;;;;;5034748;28;20567;-59
2021/06/04 09:09:50;;;;;;;6.00;5.60;;;;;;;;;;5035415;28;20446;-59
2021/06/04 09:12:20;;;;;;;6.60;6.10;;;;;;;;;;5035802;28;20502;-61
2021/06/04 09:14:48;;;;;;;7.80;7.10;;;;;;;;;;5035621;28;20440;-60
2021/06/04 09:17:31;;;;;;;7.00;5.70;;;;;;;;;;5016165;28;20475;-60
2021/06/04 09:20:02;;;;;;;6.13;5.63;;;;;;;;;;5015637;28;20560;-59
2021/06/04 09:22:30;;;;;;;6.47;5.87;;;;;;;;;;5016092;28;20480;-60
2021/06/04 09:24:57;;;;;;;6.33;5.80;;;;;;;;;;5015545;28;20507;-59
2021/06/04 09:27:28;;;;;;;6.60;6.10;;;;;;;;;;5015196;28;20826;-60
2021/06/04 09:30:07;;;;;;;6.37;5.30;;;;;;;;;;5015767;28;20443;-60
2021/06/04 09:32:34;;;;;;;5.80;5.30;;;;;;;;;;5015279;28;20876;-60
2021/06/04 09:35:09;;;;;;;5.50;5.00;;;;;;;;;;5015045;28;20939;-61
2021/06/04 09:37:38;;;;;;;7.03;6.33;;;;;;;;;;5015177;28;20439;-60
2021/06/04 09:40:13;;;;;;;5.70;5.20;;;;;;;;;;5015309;28;20451;-60
2021/06/04 09:42:49;;;;;;;5.20;4.70;;;;;;;;;;5014804;28;20448;-60
2021/06/04 09:45:22;;;;;;;5.63;5.13;;;;;;;;;;5015639;28;20462;-58
2021/06/04 09:50:22;;;;;;;5.90;5.30;;;;;;;;;;5014613;28;20470;-61
2021/06/04 09:53:01;;;;;;;6.30;4.53;;;;;;;;;;5015653;28;20456;-58
2021/06/04 09:55:29;;;;;;;5.47;5.07;;;;;;;;;;5015630;28;20445;-61
2021/06/04 09:58:05;;;;;;;6.03;5.43;;;;;;;;;;5015117;28;20447;-60
2021/06/04 10:00:34;;;;;;;5.20;4.80;;;;;;;;;;5015308;28;20494;-59
2021/06/04 10:03:08;;;;;;;5.63;4.93;;;;;;;;;;5097243;22;20491;-64
2021/06/04 10:05:35;;;;;;;6.50;5.90;;;;;;;;;;5094907;28;20444;-64
2021/06/04 10:08:03;;;;;;;6.43;5.90;;;;;;;;;;5094610;28;20538;-64
2021/06/04 10:10:32;;;;;;;6.90;5.53;;;;;;;;;;5094319;28;20816;-61
2021/06/04 10:13:00;;;;;;;6.57;6.07;;;;;;;;;;5095545;28;20468;-64
2021/06/04 10:15:31;;;;;;;5.60;5.00;;;;;;;;;;5095303;28;20815;-63
2021/06/04 10:18:03;;;;;;;6.67;6.00;;;;;;;;;;5094910;28;20803;-61
2021/06/04 10:20:33;;;;;;;5.70;5.20;;;;;;;;;;5110924;22;20484;-59
2021/06/04 10:23:06;;;;;;;5.50;5.10;;;;;;;;;;5112927;22;20432;-63
2021/06/04 10:25:38;;;;;;;7.17;6.57;;;;;;;;;;5093581;28;20457;-63
2021/06/04 10:28:05;;;;;;;7.80;7.10;;;;;;;;;;5094238;28;20469;-63
2021/06/04 10:30:44;;;;;;;8.20;7.13;;;;;;;;;;5093772;28;20441;-64
2021/06/04 10:33:15;;;;;;;6.97;6.20;;;;;;;;;;5094225;28;20460;-63
2021/06/04 10:35:43;;;;;;;7.10;6.50;;;;;;;;;;5094149;28;20800;-61
2021/06/04 10:40:54;;;;;;;6.53;5.83;;;;;;;;;;5092888;28;20456;-62
2021/06/04 10:43:38;;;;;;;6.13;5.53;;;;;;;;;;5094084;28;20507;-61
2021/06/04 10:46:10;;;;;;;6.30;5.70;;;;;;;;;;5094012;28;20431;-63
2021/06/04 10:48:53;;;;;;;6.60;6.00;;;;;;;;;;5093862;28;20483;-64
2021/06/04 10:51:27;;;;;;;6.23;5.73;;;;;;;;;;5094388;28;20422;-59
2021/06/04 10:53:58;;;;;;;6.30;5.70;;;;;;;;;;5093643;28;20430;-60
2021/06/04 10:56:27;;;;;;;7.27;6.57;;;;;;;;;;5095664;28;20432;-60
2021/06/04 10:59:00;;;;;;;6.53;6.03;;;;;;;;;;5093870;28;20467;-60
2021/06/04 11:01:31;;;;;;;6.53;5.80;;;;;;;;;;5093489;28;20923;-60
2021/06/04 11:04:00;;;;;;;7.33;6.63;;;;;;;;;;5094182;28;20440;-61
2021/06/04 11:06:28;;;;;;;6.87;6.27;;;;;;;;;;5093869;28;20452;-61
2021/06/04 11:09:02;;;;;;;7.37;6.63;;;;;;;;;;5095070;28;20464;-60
2021/06/04 11:11:35;;;;;;;6.73;6.20;;;;;;;;;;5093664;28;20435;-59
2021/06/04 11:14:07;;;;;;;7.60;6.93;;;;;;;;;;5093793;28;20779;-60
2021/06/04 11:16:39;;;;;;;7.00;6.30;;;;;;;;;;5092983;28;20434;-60
2021/06/04 11:19:11;;;;;;;6.40;5.80;;;;;;;;;;5093445;28;20465;-60
2021/06/04 11:21:42;;;;;;;6.60;6.10;;;;;;;;;;5093409;28;20415;-60
2021/06/04 11:24:11;;;;;;;6.90;6.30;;;;;;;;;;5094194;28;20430;-60
2021/06/04 11:26:40;;;;;;;6.90;6.20;;;;;;;;;;5092944;28;20503;-59
2021/06/04 11:29:08;;;;;;;6.67;6.10;;;;;;;;;;5093458;28;20472;-59
2021/06/04 11:31:49;;;;;;;7.03;6.53;;;;;;;;;;5095007;28;20856;-60
2021/06/04 11:34:21;;;;;;;6.40;5.90;;;;;;;;;;5093183;28;20445;-59
2021/06/04 11:36:48;;;;;;;6.47;5.87;;;;;;;;;;5093187;28;20789;-60
2021/06/04 11:39:17;;;;;;;8.77;6.23;;;;;;;;;;5092643;28;20477;-60
2021/06/04 11:41:48;;;;;;;5.87;5.37;;;;;;;;;;5107826;22;21023;-58
2021/06/04 11:44:19;;;;;;;6.77;6.17;;;;;;;;;;5094435;28;20439;-62
2021/06/04 11:47:08;;;;;;;6.23;5.53;;;;;;;;;;5093041;28;20425;-60
2021/06/04 11:50:03;;;;;;;6.30;5.70;;;;;;;;;;5092551;28;20448;-61
2021/06/04 11:52:33;;;;;;;5.73;5.23;;;;;;;;;;5072543;28;20536;-59
2021/06/04 11:55:08;;;;;;;7.10;6.50;;;;;;;;;;5110575;22;20556;-61
2021/06/04 11:57:46;;;;;;;7.10;6.40;;;;;;;;;;5092865;28;20426;-58
2021/06/04 12:00:28;;;;;;;7.13;6.63;;;;;;;;;;5092854;28;20477;-60
2021/06/04 12:02:55;;;;;;;6.37;5.77;;;;;;;;;;5090336;28;20459;-61
2021/06/04 12:05:34;;;;;;;6.00;5.50;;;;;;;;;;5092558;28;20478;-62
2021/06/04 12:11:32;;;;;;;6.67;6.07;;;;;;;;;;5153524;27;20698;-61
2021/06/04 12:14:16;;;;;;;6.10;5.60;;;;;;;;;;5147463;27;20455;-62
2021/06/04 12:16:43;;;;;;;6.13;5.63;;;;;;;;;;5131119;27;20810;-63
2021/06/04 12:19:30;;;;;;;6.40;5.90;;;;;;;;;;5131745;27;20437;-62
2021/06/04 12:21:58;;;;;;;6.50;5.80;;;;;;;;;;5131393;27;20805;-68
2021/06/04 12:24:44;;;;;;;7.83;6.50;;;;;;;;;;5130674;27;20463;-62
2021/06/04 12:27:25;;;;;;;7.60;6.47;;;;;;;;;;5130513;27;20439;-62
2021/06/04 12:29:54;;;;;;;5.80;5.30;;;;;;;;;;5130355;28;20470;-62
2021/06/04 12:32:40;;;;;;;6.60;6.10;;;;;;;;;;5130772;27;20982;-62
2021/06/04 12:35:27;;;;;;;6.30;5.70;;;;;;;;;;5130489;27;20875;-62
2021/06/04 12:38:14;;;;;;;6.27;5.70;;;;;;;;;;5130562;27;20439;-62
2021/06/04 12:40:49;;;;;;;6.53;6.03;;;;;;;;;;5130488;27;20870;-62
2021/06/04 12:43:22;;;;;;;6.10;5.70;;;;;;;;;;5131674;27;20425;-62
2021/06/04 12:45:58;;;;;;;6.03;5.63;;;;;;;;;;5130560;27;20461;-61
2021/06/04 12:48:26;;;;;;;6.57;6.03;;;;;;;;;;5130747;27;20485;-61
2021/06/04 12:51:05;;;;;;;6.53;5.93;;;;;;;;;;5130168;27;20984;-62
2021/06/04 12:53:32;;;;;;;6.83;6.20;;;;;;;;;;5130487;27;20437;-62
2021/06/04 12:56:09;;;;;;;7.00;6.40;;;;;;;;;;5130649;27;20554;-61
2021/06/04 12:58:36;;;;;;;7.00;6.43;;;;;;;;;;5130672;27;20461;-62
2021/06/04 13:01:10;;;;;;;6.10;5.70;;;;;;;;;;5130550;27;20481;-61
2021/06/04 13:03:38;;;;;;;7.73;7.03;;;;;;;;;;5131347;27;20437;-61
2021/06/04 13:06:05;;;;;;;7.50;6.80;;;;;;;;;;5130393;27;20495;-61
2021/06/04 13:08:34;;;;;;;7.67;6.70;;;;;;;;;;5129772;27;20462;-61
2021/06/04 13:11:01;;;;;;;7.13;6.40;;;;;;;;;;5130301;27;20982;-60
2021/06/04 13:13:30;;;;;;;8.27;7.47;;;;;;;;;;5130014;27;20438;-61
2021/06/04 13:15:58;;;;;;;8.07;7.37;;;;;;;;;;5129846;27;20835;-60
2021/06/04 13:18:27;;;;;;;7.70;6.97;;;;;;;;;;5130235;27;20442;-60
2021/06/04 13:20:54;;;;;;;7.40;6.80;;;;;;;;;;5125599;27;20440;-60
2021/06/04 13:23:24;;;;;;;8.27;7.47;;;;;;;;;;5115982;28;20455;-61
2021/06/04 13:26:04;;;;;;;6.37;5.87;;;;;;;;;;5116041;28;20442;-61
2021/06/04 13:28:37;;;;;;;7.07;6.07;;;;;;;;;;5136785;22;20499;-61
2021/06/04 13:31:05;;;;;;;6.80;6.20;;;;;;;;;;5095792;28;20466;-61
2021/06/04 13:33:34;;;;;;;6.40;5.80;;;;;;;;;;5095953;28;20448;-62
2021/06/04 13:36:05;;;;;;;7.10;6.60;;;;;;;;;;5095602;28;20634;-63
2021/06/04 13:38:33;;;;;;;6.83;6.33;;;;;;;;;;5101614;28;20477;-62
2021/06/04 13:41:02;;;;;;;7.00;6.53;;;;;;;;;;5115689;28;20452;-60
2021/06/04 13:43:31;;;;;;;8.07;7.43;;;;;;;;;;5115599;28;20443;-61
2021/06/04 13:45:58;;;;;;;6.40;5.93;;;;;;;;;;5143434;22;20495;-60
2021/06/04 13:48:26;;;;;;;7.80;7.10;;;;;;;;;;5095148;28;20435;-60
2021/06/04 13:51:02;;;;;;;7.40;6.70;;;;;;;;;;5094971;28;20504;-61
2021/06/04 13:53:47;;;;;;;7.27;6.77;;;;;;;;;;5094835;28;20441;-61
2021/06/04 13:56:22;;;;;;;6.63;6.23;;;;;;;;;;5103597;28;20459;-60
2021/06/04 13:58:50;;;;;;;6.67;5.87;;;;;;;;;;5115275;28;20459;-60
2021/06/04 14:01:18;;;;;;;6.63;6.13;;;;;;;;;;5131281;22;21000;-61
2021/06/04 14:03:46;;;;;;;7.13;6.53;;;;;;;;;;5144036;22;20495;-60
2021/06/04 14:06:22;;;;;;;6.90;6.40;;;;;;;;;;5115249;28;20432;-58
2021/06/04 14:08:59;;;;;;;9.50;6.70;;;;;;;;;;5115617;28;20508;-61
2021/06/04 14:11:27;;;;;;;6.70;6.10;;;;;;;;;;5114894;28;20442;-60
2021/06/04 14:14:00;;;;;;;8.53;7.93;;;;;;;;;;5115666;28;20463;-61
2021/06/04 14:16:37;;;;;;;7.33;6.73;;;;;;;;;;5115661;28;20446;-61
2021/06/04 14:19:04;;;;;;;7.67;7.07;;;;;;;;;;5115463;28;20448;-61
2021/06/04 14:21:40;;;;;;;8.43;7.73;;;;;;;;;;5115285;28;20447;-61
2021/06/04 14:24:12;;;;;;;6.97;6.43;;;;;;;;;;5114519;28;20460;-61
2021/06/04 14:26:42;;;;;;;7.20;6.47;;;;;;;;;;5147639;22;20581;-62
2021/06/04 14:29:11;;;;;;;6.10;5.70;;;;;;;;;;5135137;27;20901;-62
2021/06/04 14:31:38;;;;;;;6.53;5.93;;;;;;;;;;5135646;27;20572;-62
2021/06/04 14:34:05;;;;;;;6.60;6.10;;;;;;;;;;5134568;27;20457;-62
2021/06/04 14:36:34;;;;;;;6.23;5.40;;;;;;;;;;5148780;22;20488;-62
2021/06/04 14:39:16;;;;;;;6.00;5.50;;;;;;;;;;5114273;28;20448;-61
2021/06/04 14:41:44;;;;;;;7.03;5.27;;;;;;;;;;5114087;28;20445;-61
2021/06/04 14:44:11;;;;;;;5.47;5.07;;;;;;;;;;5114016;28;20995;-60
2021/06/04 14:46:37;;;;;;;5.90;5.50;;;;;;;;;;5114605;28;20472;-60
2021/06/04 14:49:06;;;;;;;5.63;5.13;;;;;;;;;;5114506;28;20444;-58
2021/06/04 14:51:33;;;;;;;5.53;5.13;;;;;;;;;;5115642;28;20501;-60
2021/06/04 14:53:59;;;;;;;4.77;4.47;;;;;;;;;;5114222;28;20922;-61
2021/06/04 14:56:26;;;;;;;5.60;5.17;;;;;;;;;;5114206;28;20474;-59
2021/06/04 14:58:54;;;;;;;6.23;5.83;;;;;;;;;;5114356;28;20485;-61
2021/06/04 15:01:21;;;;;;;6.73;6.13;;;;;;;;;;5114567;28;20427;-59
2021/06/04 15:03:48;;;;;;;6.90;6.30;;;;;;;;;;5113962;28;20600;-60
2021/06/04 15:06:15;;;;;;;6.40;6.00;;;;;;;;;;5113942;28;20491;-58
2021/06/04 15:08:43;;;;;;;6.37;5.87;;;;;;;;;;5114428;28;20957;-59
2021/06/04 15:11:10;;;;;;;6.00;5.50;;;;;;;;;;5114064;28;20995;-58